Wetterstation Vordersexau
Wetterdaten: September 2017
Datum Temp. A. Feuchte A. Luftdruck Regen Wind Richtung Taupunkt Windchill Windben
01.09.2017 15,2 C 76 % 1016,4 hPa 0,5 l/m 0,3 km/h O-SO 11,0 C 15,2 C 0,2 km/h
02.09.2017 13,2 C 77 % 1016,0 hPa 15,0 l/m 0,4 km/h O-SO 9,3 C 13,2 C 0,2 km/h
03.09.2017 15,8 C 66 % 1014,6 hPa 0,0 l/m 0,0 km/h O-SO 9,0 C 15,8 C 0,0 km/h
04.09.2017 16,7 C 68 % 1014,3 hPa 0,0 l/m 0,4 km/h O-SO 10,2 C 16,7 C 0,2 km/h
05.09.2017 21,0 C 70 % 1016,7 hPa 0,0 l/m 0,5 km/h O-SO 14,8 C 21,0 C 0,3 km/h
06.09.2017 18,8 C 74 % 1016,8 hPa 0,0 l/m 1,4 km/h W 13,9 C 18,6 C 0,8 km/h
07.09.2017 16,7 C 72 % 1015,8 hPa 0,5 l/m 0,0 km/h O-SO 11,2 C 16,7 C 0,0 km/h
08.09.2017 14,1 C 71 % 1009,4 hPa 0,0 l/m 5,8 km/h O-SO 8,8 C 13,0 C 3,2 km/h
09.09.2017 14,8 C 75 % 1000,6 hPa 1,6 l/m 5,0 km/h S 10,3 C 14,0 C 2,8 km/h
10.09.2017 15,9 C 67 % 1004,2 hPa 0,0 l/m 1,3 km/h O 9,0 C 15,8 C 0,7 km/h
11.09.2017 14,7 C 68 % 1002,8 hPa 0,0 l/m 7,7 km/h W-SW 8,8 C 13,3 C 4,3 km/h
12.09.2017 14,1 C 74 % 1009,2 hPa 5,2 l/m 4,7 km/h W-SW 9,4 C 13,1 C 2,6 km/h
13.09.2017 16,9 C 68 % 1009,5 hPa 0,0 l/m 12,5 km/h W 10,8 C 14,5 C 6,9 km/h
14.09.2017 14,9 C 72 % 1009,3 hPa 11,9 l/m 12,6 km/h W-SW 9,8 C 12,6 C 7,0 km/h
15.09.2017 14,5 C 66 % 1011,9 hPa 0,0 l/m 1,0 km/h W 7,5 C 14,5 C 0,5 km/h
16.09.2017 10,8 C 76 % 1010,2 hPa 1,6 l/m 0,6 km/h O-SO 6,5 C 10,7 C 0,3 km/h
17.09.2017 11,4 C 74 % 1011,6 hPa 3,6 l/m 0,0 km/h NO 6,8 C 11,4 C 0,0 km/h
18.09.2017 11,8 C 76 % 1014,6 hPa 0,5 l/m 0,1 km/h O-SO 7,5 C 11,8 C 0,1 km/h
19.09.2017 12,0 C 78 % 1016,5 hPa 4,7 l/m 0,2 km/h O-SO 8,3 C 12,0 C 0,1 km/h
20.09.2017 13,0 C 71 % 1019,8 hPa 1,0 l/m 1,4 km/h SO 7,5 C 12,8 C 0,7 km/h
21.09.2017 13,0 C 71 % 1018,1 hPa 0,0 l/m 0,2 km/h W 7,5 C 13,0 C 0,1 km/h
22.09.2017 15,2 C 67 % 1018,2 hPa 0,0 l/m 0,0 km/h SO 8,4 C 15,2 C 0,0 km/h
23.09.2017 16,4 C 70 % 1019,0 hPa 0,0 l/m 0,1 km/h O-SO 10,2 C 16,4 C 0,1 km/h
24.09.2017 15,8 C 69 % 1018,0 hPa 0,0 l/m 0,6 km/h N-NO 9,6 C 15,8 C 0,3 km/h
25.09.2017 13,8 C 73 % 1016,7 hPa 0,0 l/m 0,0 km/h W 8,8 C 13,8 C 0,0 km/h
26.09.2017 15,5 C 70 % 1018,3 hPa 0,0 l/m 0,0 km/h W 9,6 C 15,5 C 0,0 km/h
27.09.2017 16,9 C 72 % 1019,9 hPa 0,0 l/m 0,8 km/h O-SO 11,3 C 16,8 C 0,4 km/h
28.09.2017 17,0 C 70 % 1021,3 hPa 0,0 l/m 1,3 km/h O-SO 10,9 C 16,9 C 0,7 km/h
29.09.2017 19,2 C 72 % 1019,4 hPa 0,0 l/m 0,0 km/h SO 13,4 C 19,2 C 0,0 km/h
30.09.2017 15,5 C 75 % 1015,6 hPa 4,1 l/m 2,7 km/h O-SO 11,0 C 15,1 C 1,5 km/h
Min-Datum 21.09.17 24.09.17 09.09.17 12 Tage 01.09.17 - 21.09.17 21.09.17 01.09.17
Min-Zeit 07:53 17:53 06:53 - 00:53 - 07:53 07:53 00:53
Minimum 3,8 C 33 % 998,9 hPa - 0,0 km/h - 0,8 C 3,8 C 0,0 km/h
Max-Datum 29.09.17 08.09.17 28.09.17 02.09.17 14.09.17 - 05.09.17 29.09.17 14.09.17
Max-Zeit 15:53 02:58 09:53 10:53 01:53 - 12:53 15:53 01:53
Maximum 31,7 C 84 % 1022,2 hPa 15,0 l/m 44,1 km/h
W-SW
- 18,5 C 31,7 C 24,5 km/h
W-SW
Durchschnitt 15,2 C 72 % 1014,2 hPa #50,2 l/m 2,1 km/h O-SO 9,7 C 14,8 C 1,1 km/h

Durchschnitt Minimum Temp.9,0 C
Durchschnitt Maximum Temp.24,7 C
www.sexauwetter.de